Time;durP1;ratioP1;P1;durP2;ratioP2;P2;SDS_P1;SDS_P2;PMS_P1;PMS_P2;Temp;Humidity;BMP_temperature;BMP_pressure;BME280_temperature;BME280_humidity;BME280_pressure;Samples;Min_cycle;Max_cycle;Signal;HPM_P1;HPM_P2
2021/08/17 00:00:41;;;;;;;0.03;0.03;;;;;;;17.38;50.20;101858.34;4996149;28;20105;-89
2021/08/17 00:03:23;;;;;;;0.10;0.10;;;;;;;17.45;50.37;101860.75;4999256;28;20030;-89
2021/08/17 00:05:54;;;;;;;0.08;0.08;;;;;;;17.39;50.08;101850.25;4997806;28;20027;-88
2021/08/17 00:08:21;;;;;;;0.07;0.07;;;;;;;17.51;49.89;101848.09;4995798;28;20034;-88
2021/08/17 00:10:54;;;;;;;0.00;0.00;;;;;;;17.52;49.74;101855.22;4997624;28;20091;-88
2021/08/17 00:13:23;;;;;;;0.00;0.00;;;;;;;17.49;50.06;101849.97;4994973;28;20031;-90
2021/08/17 00:15:56;;;;;;;0.20;0.20;;;;;;;17.44;50.21;101856.34;4999652;28;20048;-91
2021/08/17 00:18:25;;;;;;;0.10;0.10;;;;;;;17.41;50.69;101848.41;4996294;28;20057;-90
2021/08/17 00:20:57;;;;;;;0.10;0.10;;;;;;;17.42;50.42;101850.16;4998342;28;20496;-94
2021/08/17 00:23:25;;;;;;;0.32;0.32;;;;;;;17.48;50.43;101853.56;4995900;28;20382;-91
2021/08/17 00:25:55;;;;;;;0.00;0.00;;;;;;;17.50;50.11;101843.69;4997444;28;20084;-88
2021/08/17 00:28:25;;;;;;;0.00;0.00;;;;;;;17.49;50.54;101841.94;4992009;28;20034;-90
2021/08/17 00:30:53;;;;;;;0.10;0.10;;;;;;;17.53;50.29;101851.59;4996641;28;20063;-89
2021/08/17 00:33:20;;;;;;;0.10;0.10;;;;;;;17.49;50.50;101849.97;4996815;28;20557;-90
2021/08/17 00:35:46;;;;;;;0.00;0.00;;;;;;;17.49;50.54;101850.81;4996245;28;20030;-89
2021/08/17 00:38:35;;;;;;;0.10;0.10;;;;;;;17.47;50.81;101847.34;4997003;28;20030;-89
2021/08/17 00:41:13;;;;;;;2.10;0.40;;;;;;;17.56;50.56;101840.81;4993523;28;20048;-90
2021/08/17 00:43:45;;;;;;;0.10;0.10;;;;;;;17.48;50.83;101842.84;4997772;28;20026;-90
2021/08/17 00:46:13;;;;;;;0.10;0.10;;;;;;;17.47;50.83;101836.63;4997951;28;20031;-91
2021/08/17 00:48:47;;;;;;;0.00;0.00;;;;;;;17.29;51.05;101840.78;4996915;28;20031;-90
2021/08/17 00:51:23;;;;;;;0.00;0.00;;;;;;;17.44;51.14;101839.41;4996852;28;20034;-90
2021/08/17 00:53:54;;;;;;;0.05;0.05;;;;;;;17.53;51.41;101830.16;4995717;28;20027;-89
2021/08/17 00:56:21;;;;;;;0.40;0.40;;;;;;;17.44;50.92;101821.50;4996728;28;20019;-89
2021/08/17 00:58:53;;;;;;;0.00;0.00;;;;;;;17.49;51.21;101817.81;4997494;28;20053;-90
2021/08/17 01:01:25;;;;;;;0.10;0.10;;;;;;;17.56;50.89;101830.09;4996591;28;20018;-90
2021/08/17 01:03:58;;;;;;;0.10;0.10;;;;;;;17.54;51.61;101826.56;4996211;28;20018;-90
2021/08/17 01:06:40;;;;;;;0.00;0.00;;;;;;;17.47;51.56;101828.59;4993948;28;20495;-90
2021/08/17 01:09:12;;;;;;;0.33;0.33;;;;;;;17.48;51.67;101826.78;4994604;28;20054;-90
2021/08/17 01:11:48;;;;;;;0.05;0.05;;;;;;;17.50;51.64;101836.50;4996156;28;20080;-90
2021/08/17 01:14:21;;;;;;;2.17;0.47;;;;;;;17.49;51.57;101833.88;4996538;28;20044;-89
2021/08/17 01:16:50;;;;;;;0.10;0.10;;;;;;;17.43;51.70;101841.22;4992412;28;20022;-88
2021/08/17 01:19:19;;;;;;;0.00;0.00;;;;;;;17.30;52.29;101843.38;4996620;28;20037;-90
2021/08/17 01:21:47;;;;;;;0.00;0.00;;;;;;;17.42;52.23;101842.13;4992850;28;20038;-89
2021/08/17 01:24:15;;;;;;;0.10;0.10;;;;;;;17.48;52.29;101840.16;4995826;28;20066;-89
2021/08/17 01:26:41;;;;;;;0.10;0.10;;;;;;;17.45;52.85;101844.69;4995050;28;20023;-89
2021/08/17 01:29:10;;;;;;;0.10;0.10;;;;;;;17.53;52.52;101851.59;4995755;28;20046;-89
2021/08/17 01:31:38;;;;;;;0.20;0.20;;;;;;;17.54;52.60;101853.38;4995338;28;20030;-90
2021/08/17 01:34:05;;;;;;;0.00;0.00;;;;;;;17.52;52.78;101855.22;4994879;28;20041;-90
2021/08/17 01:36:32;;;;;;;0.00;0.00;;;;;;;17.48;53.52;101858.94;4994234;28;20054;-90
2021/08/17 01:38:59;;;;;;;0.00;0.00;;;;;;;17.55;53.00;101861.34;4994572;28;20030;-90
2021/08/17 01:41:29;;;;;;;0.00;0.00;;;;;;;17.53;53.09;101856.97;4995055;28;20034;-89
2021/08/17 01:43:56;;;;;;;0.00;0.00;;;;;;;17.53;53.54;101854.28;4995393;28;20022;-89
2021/08/17 01:46:22;;;;;;;0.00;0.00;;;;;;;17.49;53.62;101856.19;4995181;28;20109;-90
2021/08/17 01:48:49;;;;;;;0.00;0.00;;;;;;;17.45;54.09;101858.09;4994909;28;20044;-90
2021/08/17 01:51:15;;;;;;;0.00;0.00;;;;;;;17.61;52.91;101849.56;4994728;28;20469;-89
2021/08/17 01:53:42;;;;;;;0.90;0.90;;;;;;;17.59;53.32;101864.81;4994529;28;20089;-89
2021/08/17 01:56:13;;;;;;;0.43;0.30;;;;;;;17.50;54.60;101857.94;4994640;28;20445;-89
2021/08/17 01:58:42;;;;;;;0.00;0.00;;;;;;;17.56;54.55;101851.53;4994785;28;20026;-89
2021/08/17 02:01:10;;;;;;;8.57;0.90;;;;;;;17.55;55.12;101852.44;4994436;28;20030;-89
2021/08/17 02:03:36;;;;;;;0.00;0.00;;;;;;;17.61;53.74;101852.25;4994523;28;20034;-90
2021/08/17 02:06:04;;;;;;;0.10;0.10;;;;;;;17.57;55.84;101853.25;4994887;28;20096;-89
2021/08/17 02:08:31;;;;;;;0.00;0.00;;;;;;;17.62;54.72;101856.69;4994305;28;20026;-88
2021/08/17 02:10:57;;;;;;;0.00;0.00;;;;;;;17.63;54.85;101845.00;4994555;28;20026;-90
2021/08/17 02:13:24;;;;;;;1.42;1.33;;;;;;;17.62;55.45;101854.84;4994175;28;20117;-90
2021/08/17 02:15:51;;;;;;;0.00;0.00;;;;;;;17.62;55.50;101845.97;4994185;28;20539;-90
2021/08/17 02:18:18;;;;;;;0.10;0.10;;;;;;;17.61;55.40;101855.78;4994338;28;20031;-89
2021/08/17 02:20:45;;;;;;;0.10;0.10;;;;;;;17.57;56.87;101851.47;4993976;28;20148;-89
2021/08/17 02:23:12;;;;;;;0.00;0.00;;;;;;;17.69;55.81;101849.28;4993782;28;20031;-89
2021/08/17 02:25:39;;;;;;;0.00;0.00;;;;;;;17.59;56.68;101851.41;4994239;28;20019;-89
2021/08/17 02:28:05;;;;;;;0.00;0.00;;;;;;;17.68;55.63;101850.22;4994341;28;20385;-89
2021/08/17 02:30:32;;;;;;;0.10;0.10;;;;;;;17.59;57.35;101851.41;4994368;28;20124;-89
2021/08/17 02:33:07;;;;;;;0.10;0.10;;;;;;;17.72;56.54;101847.38;4995048;28;20109;-88
2021/08/17 02:35:40;;;;;;;0.00;0.00;;;;;;;17.73;56.35;101848.25;4994659;28;20026;-89
2021/08/17 02:38:07;;;;;;;0.10;0.10;;;;;;;17.76;56.24;101853.53;4995267;28;20559;-89
2021/08/17 02:40:42;;;;;;;0.00;0.00;;;;;;;17.84;55.85;101861.28;4995105;28;20041;-90
2021/08/17 02:43:09;;;;;;;0.00;0.00;;;;;;;17.85;56.14;101863.06;4994270;28;20038;-89
2021/08/17 02:45:35;;;;;;;0.10;0.10;;;;;;;17.88;55.42;101854.88;4993910;28;20062;-89
2021/08/17 02:48:03;;;;;;;0.00;0.00;;;;;;;17.97;55.37;101857.31;4994245;28;20065;-90
2021/08/17 02:50:31;;;;;;;0.10;0.10;;;;;;;17.93;56.25;101855.59;4993815;28;20069;-89
2021/08/17 02:52:57;;;;;;;0.10;0.10;;;;;;;17.97;55.86;101848.38;4994073;28;20073;-89
2021/08/17 02:55:24;;;;;;;0.10;0.10;;;;;;;18.03;55.66;101851.72;4994404;28;20412;-89
2021/08/17 02:58:05;;;;;;;0.47;0.47;;;;;;;18.03;56.57;101842.78;4993944;28;20442;-88
2021/08/17 03:00:32;;;;;;;0.00;0.00;;;;;;;18.11;55.91;101832.69;4993581;28;20117;-90
2021/08/17 03:02:58;;;;;;;0.05;0.05;;;;;;;18.08;55.79;101833.66;4994157;28;20040;-90
2021/08/17 03:05:24;;;;;;;0.10;0.10;;;;;;;18.27;55.49;101843.72;4993875;28;20054;-89
2021/08/17 03:07:54;;;;;;;0.00;0.00;;;;;;;18.29;55.17;101836.47;4993023;28;20035;-89
2021/08/17 03:10:23;;;;;;;0.00;0.00;;;;;;;18.28;55.22;101845.50;4992759;28;20474;-90
2021/08/17 03:12:50;;;;;;;0.00;0.00;;;;;;;18.21;55.52;101838.59;4992727;28;20110;-90
2021/08/17 03:15:16;;;;;;;0.05;0.05;;;;;;;18.18;55.76;101841.38;4992548;28;20033;-89
2021/08/17 03:17:43;;;;;;;0.00;0.00;;;;;;;18.11;55.78;101841.59;4992656;28;20030;-90
2021/08/17 03:20:11;;;;;;;0.17;0.17;;;;;;;18.07;56.05;101826.53;4992707;28;20386;-89
2021/08/17 03:22:38;;;;;;;0.05;0.05;;;;;;;18.10;55.63;101825.56;4992720;28;20037;-89
2021/08/17 03:25:07;;;;;;;0.70;0.70;;;;;;;18.14;55.44;101818.28;4992820;28;20477;-89
2021/08/17 03:27:33;;;;;;;0.10;0.10;;;;;;;18.00;56.26;101822.31;4993400;28;20022;-89
2021/08/17 03:30:06;;;;;;;0.32;0.32;;;;;;;18.07;55.78;101821.19;4993579;28;20038;-90
2021/08/17 03:32:33;;;;;;;0.20;0.20;;;;;;;18.03;55.83;101822.22;4992466;28;20057;-89
2021/08/17 03:35:00;;;;;;;0.20;0.20;;;;;;;18.03;55.90;101816.88;4993475;28;20045;-89
2021/08/17 03:37:27;;;;;;;0.00;0.00;;;;;;;17.98;56.27;101813.47;4996925;28;20477;-89
2021/08/17 03:39:53;;;;;;;0.10;0.10;;;;;;;17.99;55.72;101812.53;4996978;28;20039;-89
2021/08/17 03:42:20;;;;;;;0.10;0.10;;;;;;;17.92;56.14;101806.47;4996740;28;20030;-89
2021/08/17 03:44:46;;;;;;;0.05;0.05;;;;;;;17.90;55.97;101796.75;4997056;28;20034;-89
2021/08/17 03:47:12;;;;;;;0.10;0.10;;;;;;;17.87;56.82;101807.56;4997425;28;20113;-89
2021/08/17 03:49:39;;;;;;;0.10;0.10;;;;;;;17.83;57.27;101809.50;4997154;28;20039;-89
2021/08/17 03:52:05;;;;;;;0.00;0.00;;;;;;;17.82;56.55;101804.16;4997307;28;20379;-89
2021/08/17 03:54:31;;;;;;;0.00;0.00;;;;;;;17.80;56.85;101804.22;4996877;28;20077;-88
2021/08/17 03:56:58;;;;;;;0.08;0.08;;;;;;;17.79;56.63;101805.16;4996873;28;20034;-89
2021/08/17 03:59:24;;;;;;;0.00;0.00;;;;;;;17.69;57.16;101819.81;4997416;28;20109;-89
2021/08/17 04:01:50;;;;;;;0.30;0.30;;;;;;;17.69;58.37;101820.69;4997283;28;20030;-89
2021/08/17 04:04:16;;;;;;;0.10;0.10;;;;;;;17.67;57.30;101827.91;5005677;28;20033;-90
2021/08/17 04:06:43;;;;;;;0.10;0.10;;;;;;;17.61;59.06;101833.47;5016480;28;20034;-89
2021/08/17 04:09:09;;;;;;;0.03;0.03;;;;;;;17.61;57.89;101836.16;5016092;28;20121;-90
2021/08/17 04:11:35;;;;;;;0.10;0.10;;;;;;;17.57;57.69;101831.81;5016404;28;20029;-89
2021/08/17 04:14:01;;;;;;;0.10;0.10;;;;;;;17.57;57.95;101839.84;5016438;28;20037;-89
2021/08/17 04:16:27;;;;;;;0.20;0.20;;;;;;;17.53;58.35;101848.94;5016356;28;20030;-89
2021/08/17 04:18:53;;;;;;;0.13;0.13;;;;;;;17.59;57.72;101846.03;5016167;28;20026;-90
2021/08/17 04:21:20;;;;;;;0.15;0.15;;;;;;;17.58;59.02;101838.94;5016020;28;20084;-89
2021/08/17 04:23:46;;;;;;;0.45;0.45;;;;;;;17.60;57.89;101842.44;5000693;28;20492;-89
2021/08/17 04:26:12;;;;;;;0.25;0.25;;;;;;;17.65;57.79;101829.75;4996216;28;20041;-89
2021/08/17 04:28:38;;;;;;;0.00;0.00;;;;;;;17.63;59.67;101834.28;4996425;28;20493;-89
2021/08/17 04:31:05;;;;;;;0.10;0.10;;;;;;;17.67;59.05;101835.97;4996831;28;20074;-89
2021/08/17 04:33:31;;;;;;;0.00;0.00;;;;;;;17.67;59.62;101827.91;4996115;28;20030;-89
2021/08/17 04:35:57;;;;;;;0.00;0.00;;;;;;;17.66;59.17;101823.47;4995866;28;20030;-90
2021/08/17 04:38:23;;;;;;;0.10;0.10;;;;;;;17.60;60.67;101834.41;4995809;28;20053;-89
2021/08/17 04:40:51;;;;;;;0.10;0.10;;;;;;;17.56;60.75;101840.81;4995727;28;20092;-89
2021/08/17 04:43:18;;;;;;;0.00;0.00;;;;;;;17.57;60.13;101834.50;4995585;28;20088;-89
2021/08/17 04:45:44;;;;;;;0.10;0.10;;;;;;;17.61;59.33;101830.81;4995621;28;20113;-89
2021/08/17 04:48:10;;;;;;;0.00;0.00;;;;;;;17.62;59.09;101832.56;4996397;28;20487;-89
2021/08/17 04:50:36;;;;;;;0.10;0.10;;;;;;;17.60;60.33;101826.38;4995815;28;20026;-90
2021/08/17 04:53:03;;;;;;;0.00;0.00;;;;;;;17.54;59.71;101830.13;4995530;28;20026;-90
2021/08/17 04:55:30;;;;;;;0.63;0.47;;;;;;;17.56;59.91;101828.25;4995867;28;20034;-89
2021/08/17 04:57:59;;;;;;;0.10;0.10;;;;;;;17.54;60.46;101823.88;4996143;28;20037;-90
2021/08/17 05:00:27;;;;;;;0.10;0.10;;;;;;;17.53;60.45;101827.50;4995161;28;20058;-89
2021/08/17 05:02:55;;;;;;;0.17;0.17;;;;;;;17.50;60.19;101820.44;4995381;28;20038;-89
2021/08/17 05:05:21;;;;;;;2.03;0.47;;;;;;;17.42;61.58;101815.34;5012664;28;20112;-89
2021/08/17 05:07:50;;;;;;;0.03;0.03;;;;;;;17.44;61.14;101818.81;5004401;28;20034;-90
2021/08/17 05:10:20;;;;;;;1.35;1.08;;;;;;;17.42;60.43;101834.09;4994514;28;20438;-89
2021/08/17 05:12:47;;;;;;;0.03;0.03;;;;;;;17.43;60.99;101832.28;4994023;28;20039;-89
2021/08/17 05:15:14;;;;;;;0.40;0.40;;;;;;;17.44;60.69;101831.34;4994452;28;20034;-89
2021/08/17 05:17:41;;;;;;;0.10;0.10;;;;;;;17.41;60.92;101842.19;4994241;28;20030;-89
2021/08/17 05:20:10;;;;;;;0.05;0.05;;;;;;;17.48;61.58;101837.50;4993824;28;20066;-89
2021/08/17 05:22:36;;;;;;;0.05;0.05;;;;;;;17.51;61.80;101842.72;4994336;28;20037;-88
2021/08/17 05:25:02;;;;;;;0.20;0.20;;;;;;;17.55;62.11;101833.69;4993472;28;20068;-89
2021/08/17 05:27:29;;;;;;;0.03;0.03;;;;;;;17.62;61.51;101827.19;4994012;28;20466;-89
2021/08/17 05:29:56;;;;;;;0.00;0.00;;;;;;;17.67;61.93;101827.03;4993485;28;20126;-89
2021/08/17 05:32:22;;;;;;;0.15;0.15;;;;;;;17.73;61.29;101822.34;4991598;28;20037;-89
2021/08/17 05:34:49;;;;;;;0.10;0.10;;;;;;;17.78;61.67;101808.75;4992821;28;20041;-89
2021/08/17 05:37:16;;;;;;;0.52;0.52;;;;;;;17.84;61.74;101813.91;4996513;28;20038;-90
2021/08/17 05:39:42;;;;;;;0.10;0.10;;;;;;;17.90;62.30;101808.34;4990317;28;20038;-90
2021/08/17 05:42:10;;;;;;;0.38;0.38;;;;;;;17.96;62.07;101818.00;4992916;28;20478;-89
2021/08/17 05:44:38;;;;;;;0.10;0.10;;;;;;;18.07;61.34;101820.31;4993789;28;20085;-89
2021/08/17 05:47:05;;;;;;;5.38;1.10;;;;;;;18.07;61.61;101818.50;4993802;28;20600;-89
2021/08/17 05:49:31;;;;;;;0.98;0.98;;;;;;;18.13;60.96;101809.38;4994754;28;20030;-90
2021/08/17 05:51:57;;;;;;;0.10;0.10;;;;;;;18.14;62.39;101816.47;4993544;28;20428;-92
2021/08/17 05:54:24;;;;;;;0.00;0.00;;;;;;;18.19;61.65;101808.25;4994168;28;20038;-95
2021/08/17 05:56:51;;;;;;;0.10;0.10;;;;;;;18.27;61.49;101800.81;4993801;28;20037;-95
2021/08/17 05:59:17;;;;;;;0.15;0.15;;;;;;;18.31;61.63;101801.56;4992711;28;20026;-93
2021/08/17 06:01:43;;;;;;;0.05;0.05;;;;;;;18.45;60.94;101809.97;5022686;22;20125;-83
2021/08/17 06:04:09;;;;;;;0.95;0.63;;;;;;;18.47;61.54;101812.59;5014177;28;20992;-85
2021/08/17 06:06:35;;;;;;;0.20;0.20;;;;;;;18.42;62.43;101805.59;5010158;28;20034;-86
2021/08/17 06:09:01;;;;;;;0.10;0.10;;;;;;;18.43;62.05;101801.13;5006929;28;20034;-82
2021/08/17 06:11:28;;;;;;;0.55;0.55;;;;;;;18.49;62.38;101808.94;4994956;28;20045;-84
2021/08/17 06:13:54;;;;;;;1.10;1.10;;;;;;;18.53;62.37;101812.34;4994969;28;20495;-87
2021/08/17 06:16:20;;;;;;;0.13;0.13;;;;;;;18.57;62.62;101816.69;4994513;28;20504;-85
2021/08/17 06:18:46;;;;;;;0.13;0.13;;;;;;;18.59;62.85;101813.00;4994543;28;20023;-86
2021/08/17 06:21:12;;;;;;;0.10;0.10;;;;;;;18.66;62.09;101810.09;4994892;28;20085;-85
2021/08/17 06:23:39;;;;;;;0.15;0.15;;;;;;;18.80;62.20;101812.22;4994842;28;20080;-86
2021/08/17 06:26:05;;;;;;;0.50;0.50;;;;;;;18.84;62.11;101819.22;4995273;28;20057;-87
2021/08/17 06:28:31;;;;;;;0.55;0.55;;;;;;;18.92;62.34;101820.69;4994774;28;20382;-85
2021/08/17 06:30:57;;;;;;;0.20;0.20;;;;;;;18.96;62.24;101824.16;4994478;28;20027;-85
2021/08/17 06:33:26;;;;;;;3.03;1.25;;;;;;;19.07;61.61;101832.63;4999295;28;20030;-89
2021/08/17 06:35:52;;;;;;;0.35;0.35;;;;;;;19.08;61.59;101834.41;5013739;28;20033;-85
2021/08/17 06:38:18;;;;;;;0.15;0.15;;;;;;;19.10;61.57;101838.84;5014109;28;20018;-86
2021/08/17 06:40:44;;;;;;;0.28;0.28;;;;;;;19.11;61.86;101840.59;5014067;28;20105;-88
2021/08/17 06:43:11;;;;;;;0.10;0.10;;;;;;;19.20;61.73;101837.53;5013790;28;20176;-86
2021/08/17 06:45:37;;;;;;;1.00;0.93;;;;;;;19.27;61.68;101832.78;5013333;28;20488;-86
2021/08/17 06:48:03;;;;;;;0.57;0.57;;;;;;;19.30;61.61;101822.81;5013068;28;20033;-86
2021/08/17 06:50:29;;;;;;;0.22;0.22;;;;;;;19.34;61.80;101821.72;5013199;28;20148;-87
2021/08/17 06:52:55;;;;;;;0.40;0.40;;;;;;;19.40;61.74;101832.22;5013625;28;20026;-87
2021/08/17 06:55:22;;;;;;;0.82;0.82;;;;;;;19.44;61.44;101830.28;5013790;28;20018;-87
2021/08/17 06:57:48;;;;;;;0.10;0.10;;;;;;;19.51;60.96;101825.50;5013770;28;20145;-86
2021/08/17 07:00:14;;;;;;;0.57;0.57;;;;;;;19.58;60.96;101835.06;5013813;28;20540;-85
2021/08/17 07:02:40;;;;;;;0.30;0.30;;;;;;;19.37;61.05;101835.03;5013364;28;20053;-87
2021/08/17 07:05:07;;;;;;;0.63;0.63;;;;;;;19.58;60.46;101824.31;5013519;28;20021;-88
2021/08/17 07:07:33;;;;;;;0.73;0.73;;;;;;;19.63;60.35;101806.19;5013836;28;20065;-84
2021/08/17 07:09:59;;;;;;;0.22;0.22;;;;;;;19.55;60.43;101793.06;5015855;28;20044;-84
2021/08/17 07:12:26;;;;;;;0.73;0.38;;;;;;;19.63;60.03;101799.94;5017191;28;20499;-87
2021/08/17 07:14:52;;;;;;;0.88;0.88;;;;;;;19.80;59.32;101796.50;5017375;28;20036;-87
2021/08/17 07:17:18;;;;;;;0.10;0.10;;;;;;;19.88;59.08;101794.41;5015765;28;20034;-89
2021/08/17 07:19:45;;;;;;;6.93;0.68;;;;;;;19.81;59.20;101795.56;5018322;28;20469;-92
2021/08/17 07:22:11;;;;;;;0.10;0.10;;;;;;;19.82;59.05;101795.50;5010243;28;20132;-90
2021/08/17 07:24:37;;;;;;;1.15;1.05;;;;;;;19.90;58.87;101792.53;5014326;28;20030;-93
2021/08/17 07:27:04;;;;;;;0.10;0.10;;;;;;;19.73;58.93;101791.38;5017710;28;20057;-92
2021/08/17 07:29:30;;;;;;;0.20;0.20;;;;;;;19.92;58.78;101790.63;5017741;28;20091;-93
2021/08/17 07:31:57;;;;;;;0.10;0.10;;;;;;;19.80;58.76;101786.63;5017978;28;20053;-94
2021/08/17 07:34:23;;;;;;;0.10;0.10;;;;;;;19.75;58.69;101790.47;5016912;28;20547;-86
2021/08/17 07:36:49;;;;;;;0.28;0.28;;;;;;;19.80;58.40;101785.75;5017787;28;20029;-87
2021/08/17 07:39:16;;;;;;;0.10;0.10;;;;;;;19.86;57.64;101791.78;5017176;28;20108;-86
2021/08/17 07:41:42;;;;;;;0.10;0.10;;;;;;;19.79;57.21;101789.38;5017081;28;20557;-87
2021/08/17 07:44:09;;;;;;;0.20;0.20;;;;;;;19.86;57.27;101807.03;5016943;28;20030;-85
2021/08/17 07:46:35;;;;;;;0.20;0.20;;;;;;;20.03;56.72;101804.47;5016561;28;20026;-90
2021/08/17 07:49:01;;;;;;;0.90;0.50;;;;;;;20.01;55.66;101811.75;5017008;28;20026;-85
2021/08/17 07:51:28;;;;;;;0.22;0.20;;;;;;;19.95;56.18;101801.25;5016593;28;20109;-85
2021/08/17 07:53:55;;;;;;;1.15;1.08;;;;;;;20.19;55.74;101799.28;5016922;28;20026;-86
2021/08/17 07:56:21;;;;;;;1.73;1.30;;;;;;;20.15;55.42;101802.16;5016852;28;20113;-85
2021/08/17 07:58:47;;;;;;;0.38;0.38;;;;;;;20.11;55.32;101800.56;5016590;28;20120;-86
2021/08/17 08:01:13;;;;;;;1.35;1.30;;;;;;;20.18;55.05;101802.03;5016666;28;20030;-86
2021/08/17 08:03:40;;;;;;;1.10;1.08;;;;;;;20.17;54.56;101808.34;5016110;28;20148;-85
2021/08/17 08:06:09;;;;;;;0.30;0.30;;;;;;;20.20;54.77;101805.53;5015840;28;20117;-86
2021/08/17 08:08:35;;;;;;;0.10;0.10;;;;;;;20.20;55.11;101811.78;5016208;28;20018;-91
2021/08/17 08:11:02;;;;;;;1.27;0.98;;;;;;;20.10;55.14;101807.78;5016592;28;20018;-87
2021/08/17 08:13:29;;;;;;;0.10;0.10;;;;;;;20.14;55.22;101811.19;5015839;28;20079;-87
2021/08/17 08:15:55;;;;;;;0.13;0.13;;;;;;;20.17;55.03;101805.66;5016423;28;20022;-87
2021/08/17 08:18:22;;;;;;;0.55;0.47;;;;;;;19.99;54.96;101805.56;5016241;28;20030;-87
2021/08/17 08:20:48;;;;;;;0.10;0.10;;;;;;;20.08;54.37;101801.56;5016257;28;20480;-87
2021/08/17 08:23:14;;;;;;;2.33;1.40;;;;;;;20.22;53.61;101809.00;5016609;28;20384;-87
2021/08/17 08:25:40;;;;;;;0.08;0.08;;;;;;;20.22;53.47;101802.78;5016105;28;20075;-86
2021/08/17 08:28:08;;;;;;;0.10;0.10;;;;;;;20.12;53.25;101796.94;5016454;28;20472;-87
2021/08/17 08:30:35;;;;;;;0.30;0.30;;;;;;;20.06;53.61;101810.66;5016561;28;20036;-94
2021/08/17 08:33:02;;;;;;;0.20;0.20;;;;;;;20.14;53.37;101806.69;5016609;28;20087;-86
2021/08/17 08:35:29;;;;;;;0.32;0.32;;;;;;;19.90;53.41;101816.72;5016509;28;20022;-91
2021/08/17 08:37:56;;;;;;;1.35;1.25;;;;;;;19.97;53.79;101828.94;5016200;28;20124;-86
2021/08/17 08:40:25;;;;;;;0.00;0.00;;;;;;;19.74;54.66;101840.69;5016113;28;20021;-86
2021/08/17 08:42:53;;;;;;;0.00;0.00;;;;;;;19.82;54.96;101833.13;5016648;28;20499;-93
2021/08/17 08:45:20;;;;;;;0.00;0.00;;;;;;;19.69;54.97;101832.81;5018468;28;20030;-92
2021/08/17 08:47:46;;;;;;;0.73;0.47;;;;;;;19.62;54.69;101836.69;5017372;28;20450;-95
2021/08/17 08:50:14;;;;;;;0.10;0.10;;;;;;;19.60;54.17;101833.22;5017328;28;20401;-96
2021/08/17 08:52:40;;;;;;;0.10;0.10;;;;;;;19.55;53.90;101843.25;5016563;28;20030;-93
2021/08/17 08:55:09;;;;;;;0.50;0.50;;;;;;;19.59;53.49;101842.22;5017137;28;20121;-92
2021/08/17 08:57:36;;;;;;;0.10;0.10;;;;;;;19.72;53.32;101843.41;5016262;28;20032;-94
2021/08/17 09:00:06;;;;;;;0.60;0.40;;;;;;;19.75;53.20;101837.06;5016124;28;20061;-92
2021/08/17 09:02:32;;;;;;;1.50;1.40;;;;;;;19.62;53.52;101839.38;5016616;28;20033;-93
2021/08/17 09:05:00;;;;;;;0.08;0.08;;;;;;;19.67;53.09;101845.44;5017316;28;20485;-95
2021/08/17 09:07:37;;;;;;;0.00;0.00;;;;;;;19.67;52.92;101844.56;5017129;28;20022;-96
2021/08/17 09:10:07;;;;;;;0.70;0.70;;;;;;;19.73;52.64;101839.78;5017011;28;20058;-94
2021/08/17 09:12:36;;;;;;;0.10;0.10;;;;;;;19.83;52.84;101829.53;5017478;28;20026;-95
2021/08/17 09:15:08;;;;;;;0.40;0.40;;;;;;;19.72;53.23;101816.53;5016276;28;20033;-96
2021/08/17 09:17:34;;;;;;;0.00;0.00;;;;;;;19.78;53.15;101811.84;5016070;28;20060;-94
2021/08/17 09:20:00;;;;;;;0.00;0.00;;;;;;;19.71;54.07;101825.56;5016050;28;20045;-96
2021/08/17 09:22:27;;;;;;;0.20;0.20;;;;;;;19.55;54.20;101830.72;5016141;28;20030;-90
2021/08/17 09:24:56;;;;;;;0.00;0.00;;;;;;;19.54;54.09;101823.56;5015381;28;20036;-95
2021/08/17 09:27:26;;;;;;;9.65;1.70;;;;;;;19.64;54.22;101832.13;5015031;28;20034;-94
2021/08/17 09:32:57;;;;;;;0.10;0.10;;;;;;;19.83;54.43;101820.63;5063331;27;20423;-92
2021/08/17 09:35:25;;;;;;;0.43;0.43;;;;;;;19.68;54.12;101817.59;5059069;28;20085;-93
2021/08/17 09:38:09;;;;;;;0.08;0.08;;;;;;;19.88;53.99;101797.94;5064831;28;20135;-92
2021/08/17 09:40:42;;;;;;;0.70;0.70;;;;;;;19.60;54.82;101800.06;5069008;28;20545;-92
2021/08/17 09:46:29;;;;;;;0.93;0.93;;;;;;;19.54;54.84;101796.69;5084932;27;20713;-93
2021/08/17 09:48:56;;;;;;;0.10;0.10;;;;;;;19.56;54.81;101799.31;5071054;28;20128;-89
2021/08/17 09:51:37;;;;;;;0.30;0.30;;;;;;;19.72;54.52;101805.78;5070204;28;20063;-92
2021/08/17 09:54:21;;;;;;;0.00;0.00;;;;;;;19.67;54.93;101801.53;5050755;28;20075;-95
2021/08/17 09:59:37;;;;;;;0.00;0.00;;;;;;;19.22;55.85;101814.16;5083005;28;20422;-91
2021/08/17 10:02:06;;;;;;;0.17;0.17;;;;;;;19.27;55.41;101806.78;5063543;28;20044;-94
2021/08/17 10:04:33;;;;;;;0.10;0.10;;;;;;;19.29;55.62;101812.97;5051425;28;20095;-93
2021/08/17 10:07:01;;;;;;;0.10;0.10;;;;;;;19.38;55.64;101800.97;5050726;28;20040;-93
2021/08/17 10:09:29;;;;;;;0.13;0.13;;;;;;;19.04;57.42;101795.19;5050849;28;20057;-93
2021/08/17 10:11:57;;;;;;;0.10;0.10;;;;;;;19.03;58.68;101795.25;5051049;28;20021;-94
2021/08/17 10:14:23;;;;;;;0.10;0.10;;;;;;;18.65;60.92;101801.16;5050301;28;20040;-94
2021/08/17 10:16:50;;;;;;;0.50;0.50;;;;;;;18.37;62.64;101791.47;5049331;28;20460;-94
2021/08/17 10:19:20;;;;;;;0.10;0.10;;;;;;;18.37;62.95;101804.88;5050213;28;20028;-89
2021/08/17 10:21:49;;;;;;;0.00;0.00;;;;;;;18.43;62.25;101801.97;5049671;28;20032;-89
2021/08/17 10:24:39;;;;;;;0.10;0.10;;;;;;;18.21;64.92;101801.03;5047227;28;20032;-90
2021/08/17 10:33:00;;;;;;;0.17;0.17;;;;;;;18.06;66.32;101806.00;5028023;28;20417;-88
2021/08/17 10:46:14;;;;;;;0.28;0.28;;;;;;;17.75;66.74;101799.03;5090726;27;20969;-84
2021/08/17 10:56:50;;;;;;;0.00;0.00;;;;;;;17.79;67.69;101805.16;5091306;27;20817;-87
2021/08/17 10:59:37;;;;;;;0.00;0.00;;;;;;;17.90;67.57;101808.34;5071117;28;20134;-85
2021/08/17 11:02:07;;;;;;;0.00;0.00;;;;;;;17.85;67.10;101804.06;5055145;28;20025;-84
2021/08/17 11:04:38;;;;;;;0.10;0.10;;;;;;;17.78;68.47;101798.03;5033159;28;20076;-83
2021/08/17 11:10:04;;;;;;;0.28;0.28;;;;;;;17.88;69.03;101817.34;5131254;27;20398;-85
2021/08/17 11:12:35;;;;;;;0.00;0.00;;;;;;;17.78;69.45;101804.28;5121044;27;20035;-86
2021/08/17 11:15:04;;;;;;;0.00;0.00;;;;;;;17.75;69.75;101804.38;5111364;28;20024;-84
2021/08/17 11:17:30;;;;;;;0.25;0.25;;;;;;;17.83;68.43;101800.56;5110623;28;20034;-85
2021/08/17 11:19:56;;;;;;;0.00;0.00;;;;;;;17.79;68.59;101795.31;5108433;28;20062;-86
2021/08/17 11:25:08;;;;;;;0.08;0.08;;;;;;;17.95;68.28;101802.84;5145042;27;20821;-84
2021/08/17 11:27:39;;;;;;;0.10;0.10;;;;;;;17.85;68.92;101804.06;5110274;28;20024;-82
2021/08/17 11:30:10;;;;;;;0.20;0.20;;;;;;;17.92;68.75;101797.56;5110629;28;20046;-83
2021/08/17 11:35:20;;;;;;;0.10;0.10;;;;;;;18.01;69.24;101799.94;5080419;27;20447;-85
2021/08/17 11:37:53;;;;;;;0.10;0.10;;;;;;;17.95;69.26;101800.16;5062363;28;20060;-84
2021/08/17 11:40:23;;;;;;;0.00;0.00;;;;;;;17.97;68.86;101806.34;5057374;28;20040;-84
2021/08/17 11:42:53;;;;;;;0.10;0.10;;;;;;;18.00;69.08;101782.09;5039915;28;20160;-87
2021/08/17 11:45:21;;;;;;;0.00;0.00;;;;;;;18.04;68.83;101793.59;5029806;28;20030;-82
2021/08/17 11:47:48;;;;;;;0.10;0.10;;;;;;;17.84;69.48;101795.13;5029272;28;20437;-84
2021/08/17 11:50:17;;;;;;;0.55;0.50;;;;;;;17.98;68.75;101786.66;5032601;28;20040;-85
2021/08/17 11:52:46;;;;;;;0.25;0.25;;;;;;;18.05;68.54;101785.47;5034941;28;20141;-89
2021/08/17 11:58:04;;;;;;;0.30;0.30;;;;;;;18.11;69.35;101787.94;5077703;28;20479;-84
2021/08/17 12:00:34;;;;;;;0.05;0.05;;;;;;;18.02;70.17;101785.63;5067353;28;20040;-90
2021/08/17 12:03:05;;;;;;;0.00;0.00;;;;;;;17.95;70.29;101784.94;5049415;28;20033;-83
2021/08/17 12:05:33;;;;;;;0.10;0.10;;;;;;;18.19;68.94;101776.06;5046675;28;20061;-84
2021/08/17 12:08:02;;;;;;;0.00;0.00;;;;;;;18.19;69.49;101776.06;5048963;28;20025;-83
2021/08/17 12:10:31;;;;;;;0.10;0.10;;;;;;;18.21;69.72;101768.84;5046924;28;20025;-87
2021/08/17 12:18:31;;;;;;;0.10;0.10;;;;;;;18.05;70.40;101760.50;5076226;28;20442;-84